Time;durP1;ratioP1;P1;durP2;ratioP2;P2;SDS_P1;SDS_P2;PMS_P1;PMS_P2;Temp;Humidity;BMP_temperature;BMP_pressure;BME280_temperature;BME280_humidity;BME280_pressure;Samples;Min_cycle;Max_cycle;Signal;HPM_P1;HPM_P2
2020/12/28 00:01:34;;;;;;;;;;;6.00;85.90;;;;;;4973761;28;19929;-46
2020/12/28 00:04:00;;;;;;;;;;;6.00;85.70;;;;;;4980511;28;19929;-44
2020/12/28 00:06:26;;;;;;;;;;;6.00;85.70;;;;;;4967489;28;19932;-45
2020/12/28 00:08:55;;;;;;;;;;;6.00;85.70;;;;;;4966948;28;19939;-45
2020/12/28 00:11:21;;;;;;;;;;;6.10;85.70;;;;;;4970574;28;19941;-44
2020/12/28 00:13:47;;;;;;;;;;;6.10;85.70;;;;;;4967127;28;20289;-46
2020/12/28 00:16:14;;;;;;;;;;;6.10;85.70;;;;;;4962809;28;25245;-43
2020/12/28 00:18:40;;;;;;;;;;;6.00;85.90;;;;;;4971598;28;19936;-46
2020/12/28 00:21:07;;;;;;;;;;;6.10;85.80;;;;;;4971732;28;19933;-45
2020/12/28 00:23:33;;;;;;;;;;;6.10;85.80;;;;;;4964166;28;19926;-44
2020/12/28 00:25:59;;;;;;;;;;;6.10;85.40;;;;;;4966577;28;20297;-46
2020/12/28 00:28:25;;;;;;;;;;;6.10;85.30;;;;;;4966468;28;19929;-45
2020/12/28 00:30:54;;;;;;;;;;;6.10;85.40;;;;;;4971315;28;19979;-44
2020/12/28 00:33:20;;;;;;;;;;;6.10;85.30;;;;;;4965830;28;19932;-44
2020/12/28 00:35:49;;;;;;;;;;;6.10;85.30;;;;;;4968116;28;20059;-45
2020/12/28 00:38:15;;;;;;;;;;;6.10;85.30;;;;;;4953753;28;19945;-46
2020/12/28 00:40:41;;;;;;;;;;;6.00;85.50;;;;;;4952970;28;19937;-44
2020/12/28 00:43:07;;;;;;;;;;;6.10;85.40;;;;;;4968522;28;19936;-46
2020/12/28 00:45:35;;;;;;;;;;;6.10;85.40;;;;;;4966226;28;19934;-45
2020/12/28 00:48:01;;;;;;;;;;;6.10;85.40;;;;;;4967774;28;20102;-47
2020/12/28 00:50:27;;;;;;;;;;;6.10;85.40;;;;;;4973844;28;19929;-45
2020/12/28 00:52:56;;;;;;;;;;;6.10;85.40;;;;;;4964219;28;19932;-44
2020/12/28 00:55:23;;;;;;;;;;;6.10;85.30;;;;;;4967414;28;19933;-43
2020/12/28 00:57:49;;;;;;;;;;;6.10;85.20;;;;;;4967741;28;20385;-47
2020/12/28 01:00:15;;;;;;;;;;;6.10;85.30;;;;;;4967812;28;19929;-45
2020/12/28 01:02:41;;;;;;;;;;;6.10;85.20;;;;;;4967932;28;19931;-45
2020/12/28 01:05:07;;;;;;;;;;;6.10;85.30;;;;;;4962129;28;19933;-45
2020/12/28 01:07:33;;;;;;;;;;;6.10;85.40;;;;;;4965817;28;19929;-46
2020/12/28 01:09:59;;;;;;;;;;;6.10;85.40;;;;;;4969526;28;20312;-43
2020/12/28 01:12:26;;;;;;;;;;;6.10;85.10;;;;;;4965926;28;19929;-46
2020/12/28 01:14:52;;;;;;;;;;;6.10;85.20;;;;;;4961661;28;22344;-46
2020/12/28 01:17:18;;;;;;;;;;;6.10;85.30;;;;;;4964019;28;19925;-46
2020/12/28 01:19:44;;;;;;;;;;;6.10;85.10;;;;;;4954529;28;19937;-45
2020/12/28 01:22:11;;;;;;;;;;;6.10;85.00;;;;;;4964335;28;20350;-46
2020/12/28 01:24:37;;;;;;;;;;;6.10;85.00;;;;;;4962934;28;19925;-46
2020/12/28 01:27:03;;;;;;;;;;;6.10;85.10;;;;;;4971879;28;19940;-45
2020/12/28 01:29:29;;;;;;;;;;;6.10;85.10;;;;;;4968033;28;19929;-46
2020/12/28 01:31:55;;;;;;;;;;;6.10;85.20;;;;;;4966275;28;19932;-43
2020/12/28 01:34:28;;;;;;;;;;;6.10;85.30;;;;;;4960240;27;20451;-42
2020/12/28 01:36:55;;;;;;;;;;;6.10;85.20;;;;;;4949101;28;19926;-45
2020/12/28 01:39:21;;;;;;;;;;;6.10;85.30;;;;;;4950981;28;19934;-43
2020/12/28 01:41:48;;;;;;;;;;;6.10;85.20;;;;;;4949945;28;19937;-43
2020/12/28 01:44:15;;;;;;;;;;;6.10;84.90;;;;;;4943087;28;19930;-44
2020/12/28 01:46:41;;;;;;;;;;;6.00;85.00;;;;;;4938847;28;20255;-43
2020/12/28 01:49:07;;;;;;;;;;;6.10;85.20;;;;;;4949329;28;19932;-44
2020/12/28 01:51:33;;;;;;;;;;;6.10;85.10;;;;;;4960507;28;19936;-43
2020/12/28 01:54:00;;;;;;;;;;;6.10;85.20;;;;;;4959167;28;23102;-46
2020/12/28 01:56:27;;;;;;;;;;;6.00;85.30;;;;;;4945771;28;19930;-46
2020/12/28 01:58:53;;;;;;;;;;;6.00;85.40;;;;;;4952869;28;19969;-46
2020/12/28 02:01:21;;;;;;;;;;;6.00;85.30;;;;;;4944973;28;19934;-44
2020/12/28 02:03:48;;;;;;;;;;;6.10;85.40;;;;;;4945845;28;20290;-45
2020/12/28 02:06:14;;;;;;;;;;;6.10;85.30;;;;;;4946086;28;19925;-45
2020/12/28 02:08:40;;;;;;;;;;;6.00;85.30;;;;;;4952301;28;19929;-44
2020/12/28 02:11:07;;;;;;;;;;;6.10;85.40;;;;;;4946422;28;20271;-44
2020/12/28 02:13:33;;;;;;;;;;;6.00;85.40;;;;;;4959224;28;19972;-46
2020/12/28 02:16:00;;;;;;;;;;;6.10;85.30;;;;;;4946628;28;20421;-44
2020/12/28 02:18:27;;;;;;;;;;;6.10;85.20;;;;;;4943962;28;19933;-45
2020/12/28 02:20:53;;;;;;;;;;;6.00;85.10;;;;;;4941983;28;19926;-44
2020/12/28 02:23:19;;;;;;;;;;;6.00;85.20;;;;;;4948281;28;19934;-46
2020/12/28 02:25:45;;;;;;;;;;;6.00;85.40;;;;;;4940907;28;19937;-45
2020/12/28 02:28:12;;;;;;;;;;;5.90;85.40;;;;;;4944957;28;19926;-45
2020/12/28 02:30:39;;;;;;;;;;;5.90;85.50;;;;;;4937561;28;19925;-45
2020/12/28 02:33:07;;;;;;;;;;;5.90;85.40;;;;;;4939117;28;20562;-44
2020/12/28 02:35:33;;;;;;;;;;;5.90;85.50;;;;;;4937403;28;19930;-46
2020/12/28 02:37:59;;;;;;;;;;;5.90;85.50;;;;;;4938901;28;20543;-45
2020/12/28 02:40:25;;;;;;;;;;;5.90;85.40;;;;;;4934727;28;19934;-44
2020/12/28 02:42:52;;;;;;;;;;;5.90;85.50;;;;;;4939102;28;22556;-46
2020/12/28 02:45:18;;;;;;;;;;;5.90;85.60;;;;;;4931493;28;19968;-45
2020/12/28 02:47:44;;;;;;;;;;;6.00;85.50;;;;;;4932235;28;19926;-46
2020/12/28 02:50:11;;;;;;;;;;;6.00;85.10;;;;;;4922775;28;20367;-44
2020/12/28 02:52:37;;;;;;;;;;;6.00;85.10;;;;;;4923339;28;19929;-45
2020/12/28 02:55:03;;;;;;;;;;;6.00;85.00;;;;;;4943956;28;19926;-43
2020/12/28 02:57:29;;;;;;;;;;;6.00;85.10;;;;;;4928653;28;20370;-44
2020/12/28 02:59:56;;;;;;;;;;;6.00;85.10;;;;;;4927648;28;19969;-45
2020/12/28 03:02:23;;;;;;;;;;;6.00;85.20;;;;;;4926002;28;20333;-45
2020/12/28 03:04:49;;;;;;;;;;;6.00;85.00;;;;;;4939486;28;19930;-45
2020/12/28 03:07:15;;;;;;;;;;;6.00;85.00;;;;;;4942117;28;20362;-45
2020/12/28 03:09:42;;;;;;;;;;;6.10;84.90;;;;;;4929973;28;24257;-46
2020/12/28 03:12:09;;;;;;;;;;;6.10;84.80;;;;;;4928873;28;20001;-44
2020/12/28 03:14:35;;;;;;;;;;;6.10;84.70;;;;;;4936693;28;19930;-45
2020/12/28 03:17:01;;;;;;;;;;;6.10;84.80;;;;;;4925439;28;19933;-44
2020/12/28 03:19:31;;;;;;;;;;;6.10;84.70;;;;;;4927452;28;20413;-45
2020/12/28 03:22:00;;;;;;;;;;;6.10;84.70;;;;;;4928728;28;19948;-45
2020/12/28 03:24:26;;;;;;;;;;;6.10;84.70;;;;;;4924360;28;19929;-45
2020/12/28 03:26:52;;;;;;;;;;;6.10;84.70;;;;;;4934341;28;19932;-45
2020/12/28 03:29:19;;;;;;;;;;;6.10;84.70;;;;;;4928299;28;19932;-46
2020/12/28 03:31:45;;;;;;;;;;;6.10;84.80;;;;;;4931915;28;19933;-43
2020/12/28 03:34:12;;;;;;;;;;;6.10;84.80;;;;;;4946554;28;19936;-44
2020/12/28 03:36:39;;;;;;;;;;;6.20;84.70;;;;;;4931772;28;19932;-46
2020/12/28 03:39:05;;;;;;;;;;;6.20;84.70;;;;;;4947532;28;20640;-45
2020/12/28 03:41:32;;;;;;;;;;;6.20;84.50;;;;;;4949813;28;19973;-46
2020/12/28 03:43:58;;;;;;;;;;;6.20;84.40;;;;;;4928236;28;19925;-44
2020/12/28 03:46:25;;;;;;;;;;;6.20;84.50;;;;;;4949595;28;19940;-45
2020/12/28 03:48:52;;;;;;;;;;;6.20;84.50;;;;;;4926367;28;19994;-44
2020/12/28 03:51:18;;;;;;;;;;;6.20;84.50;;;;;;4950072;28;20282;-44
2020/12/28 03:53:44;;;;;;;;;;;6.30;84.40;;;;;;4949570;28;20273;-45
2020/12/28 03:56:14;;;;;;;;;;;6.30;84.40;;;;;;4950995;28;19925;-45
2020/12/28 03:58:40;;;;;;;;;;;6.30;84.40;;;;;;4946639;28;19933;-45
2020/12/28 04:01:06;;;;;;;;;;;6.30;84.30;;;;;;4925312;28;19934;-45
2020/12/28 04:03:33;;;;;;;;;;;6.30;84.30;;;;;;4949609;28;19983;-44
2020/12/28 04:06:02;;;;;;;;;;;6.30;84.30;;;;;;4954102;28;19932;-44
2020/12/28 04:08:28;;;;;;;;;;;6.30;84.20;;;;;;4946036;28;20416;-45
2020/12/28 04:10:55;;;;;;;;;;;6.40;84.10;;;;;;4948859;28;19937;-45
2020/12/28 04:13:21;;;;;;;;;;;6.30;84.10;;;;;;4945074;28;19925;-45
2020/12/28 04:15:48;;;;;;;;;;;6.30;84.10;;;;;;4951363;28;19933;-44
2020/12/28 04:18:15;;;;;;;;;;;6.40;84.00;;;;;;4926736;28;20332;-43
2020/12/28 04:20:42;;;;;;;;;;;6.40;83.90;;;;;;4933891;28;19933;-46
2020/12/28 04:23:09;;;;;;;;;;;6.40;83.90;;;;;;4935961;28;19933;-46
2020/12/28 04:25:35;;;;;;;;;;;6.40;83.90;;;;;;4940332;28;20406;-45
2020/12/28 04:28:03;;;;;;;;;;;6.40;84.00;;;;;;4931722;28;19934;-46
2020/12/28 04:30:29;;;;;;;;;;;6.40;83.90;;;;;;4936939;28;19941;-45
2020/12/28 04:32:56;;;;;;;;;;;6.40;83.60;;;;;;4945772;28;19929;-45
2020/12/28 04:35:22;;;;;;;;;;;6.40;83.60;;;;;;4950182;28;19929;-43
2020/12/28 04:37:48;;;;;;;;;;;6.40;83.60;;;;;;4943868;28;19934;-45
2020/12/28 04:40:14;;;;;;;;;;;6.40;83.50;;;;;;4943505;28;22671;-45
2020/12/28 04:42:42;;;;;;;;;;;6.40;83.50;;;;;;4943472;28;20020;-46
2020/12/28 04:45:09;;;;;;;;;;;6.40;83.50;;;;;;4953677;28;19940;-46
2020/12/28 04:47:35;;;;;;;;;;;6.40;83.40;;;;;;4946778;28;19932;-46
2020/12/28 04:50:02;;;;;;;;;;;6.40;83.50;;;;;;4945003;28;19941;-44
2020/12/28 04:52:29;;;;;;;;;;;6.40;83.40;;;;;;4946275;28;19929;-46
2020/12/28 04:54:56;;;;;;;;;;;6.40;83.40;;;;;;4949097;28;20020;-45
2020/12/28 04:57:22;;;;;;;;;;;6.50;83.40;;;;;;4945713;28;19981;-45
2020/12/28 04:59:54;;;;;;;;;;;6.40;83.40;;;;;;4945488;28;19934;-46
2020/12/28 05:02:21;;;;;;;;;;;6.40;83.40;;;;;;4947791;28;20025;-44
2020/12/28 05:04:48;;;;;;;;;;;6.40;83.40;;;;;;4944918;28;19953;-43
2020/12/28 05:07:14;;;;;;;;;;;6.50;83.30;;;;;;4949808;28;20004;-43
2020/12/28 05:09:41;;;;;;;;;;;6.50;83.20;;;;;;4936198;28;20403;-43
2020/12/28 05:12:09;;;;;;;;;;;6.50;83.20;;;;;;4945020;28;20024;-47
2020/12/28 05:14:37;;;;;;;;;;;6.50;83.20;;;;;;4944015;28;19956;-45
2020/12/28 05:17:05;;;;;;;;;;;6.50;83.10;;;;;;4929555;28;19925;-45
2020/12/28 05:19:35;;;;;;;;;;;6.40;83.00;;;;;;4947572;28;19936;-45
2020/12/28 05:22:02;;;;;;;;;;;6.40;83.00;;;;;;4942686;28;19932;-45
2020/12/28 05:24:28;;;;;;;;;;;6.40;83.00;;;;;;4945222;28;19933;-45
2020/12/28 05:27:00;;;;;;;;;;;6.40;83.00;;;;;;4948149;28;20450;-45
2020/12/28 05:29:27;;;;;;;;;;;6.40;83.10;;;;;;4948759;28;20469;-45
2020/12/28 05:31:54;;;;;;;;;;;6.40;83.20;;;;;;4932078;28;19941;-44
2020/12/28 05:34:22;;;;;;;;;;;6.30;83.20;;;;;;4930119;28;19940;-45
2020/12/28 05:36:49;;;;;;;;;;;6.30;83.30;;;;;;4947174;28;19932;-45
2020/12/28 05:39:16;;;;;;;;;;;6.30;83.20;;;;;;4945358;28;19941;-45
2020/12/28 05:42:11;;;;;;;;;;;6.30;83.20;;;;;;4947428;28;19926;-45
2020/12/28 05:44:40;;;;;;;;;;;6.30;83.20;;;;;;4951099;28;19929;-45
2020/12/28 05:47:08;;;;;;;;;;;6.30;83.30;;;;;;4948522;28;19952;-44
2020/12/28 05:49:41;;;;;;;;;;;6.30;83.40;;;;;;4950518;28;19982;-44
2020/12/28 05:52:11;;;;;;;;;;;6.30;83.30;;;;;;4949827;28;19932;-42
2020/12/28 05:54:37;;;;;;;;;;;6.30;83.40;;;;;;4949440;28;19925;-45
2020/12/28 05:57:04;;;;;;;;;;;6.30;83.40;;;;;;4942748;28;20697;-40
2020/12/28 05:59:32;;;;;;;;;;;6.30;83.40;;;;;;4945471;28;20400;-44
2020/12/28 06:01:58;;;;;;;;;;;6.40;83.40;;;;;;4953078;28;19925;-44
2020/12/28 06:04:28;;;;;;;;;;;6.40;83.40;;;;;;4950170;28;19968;-46
2020/12/28 06:06:58;;;;;;;;;;;6.40;83.50;;;;;;4948724;28;19933;-46
2020/12/28 06:09:26;;;;;;;;;;;6.40;83.50;;;;;;4945138;28;19933;-44
2020/12/28 06:12:01;;;;;;;;;;;6.40;83.50;;;;;;4948402;28;19925;-45
2020/12/28 06:14:31;;;;;;;;;;;6.40;83.50;;;;;;4947302;28;19934;-45
2020/12/28 06:17:03;;;;;;;;;;;6.50;83.50;;;;;;4946872;28;20067;-45
2020/12/28 06:19:59;;;;;;;;;;;6.40;83.40;;;;;;4948883;28;19964;-46
2020/12/28 06:22:25;;;;;;;;;;;6.50;83.40;;;;;;4948911;28;19930;-45
2020/12/28 06:24:57;;;;;;;;;;;6.50;83.50;;;;;;4951443;28;20048;-42
2020/12/28 06:27:27;;;;;;;;;;;6.50;83.50;;;;;;4950673;28;19932;-45
2020/12/28 06:29:54;;;;;;;;;;;6.50;83.40;;;;;;4950936;28;19926;-46
2020/12/28 06:32:20;;;;;;;;;;;6.50;83.40;;;;;;4950514;28;20416;-45
2020/12/28 06:34:59;;;;;;;;;;;6.50;83.30;;;;;;4949053;28;19926;-45
2020/12/28 06:37:26;;;;;;;;;;;6.50;83.30;;;;;;4936080;28;19952;-42
2020/12/28 06:39:57;;;;;;;;;;;6.50;83.30;;;;;;4951676;28;20190;-46
2020/12/28 06:42:23;;;;;;;;;;;6.50;83.20;;;;;;4951332;28;19982;-44
2020/12/28 06:44:50;;;;;;;;;;;6.40;83.30;;;;;;4933575;28;20301;-43
2020/12/28 06:47:23;;;;;;;;;;;6.50;83.30;;;;;;4956794;28;20024;-41
2020/12/28 06:49:50;;;;;;;;;;;6.40;83.30;;;;;;4947673;28;19926;-44
2020/12/28 06:52:17;;;;;;;;;;;6.50;83.20;;;;;;4948392;28;19944;-47
2020/12/28 06:54:49;;;;;;;;;;;6.50;83.20;;;;;;4951271;28;19988;-44
2020/12/28 06:57:22;;;;;;;;;;;6.50;83.20;;;;;;4949681;28;20107;-46
2020/12/28 06:59:52;;;;;;;;;;;6.40;83.00;;;;;;4929703;28;19948;-45
2020/12/28 07:02:21;;;;;;;;;;;6.40;82.60;;;;;;4926652;28;19933;-45
2020/12/28 07:04:48;;;;;;;;;;;6.40;82.60;;;;;;4945687;28;19938;-44
2020/12/28 07:07:14;;;;;;;;;;;6.40;82.60;;;;;;4949378;28;19933;-45
2020/12/28 07:09:40;;;;;;;;;;;6.40;82.60;;;;;;4955808;28;19936;-44
2020/12/28 07:12:10;;;;;;;;;;;6.40;82.50;;;;;;4952742;28;20345;-46
2020/12/28 07:14:37;;;;;;;;;;;6.40;82.40;;;;;;4949842;28;19926;-45
2020/12/28 07:17:04;;;;;;;;;;;6.40;82.40;;;;;;4929145;28;24284;-45
2020/12/28 07:19:30;;;;;;;;;;;6.40;82.30;;;;;;4950822;28;19925;-44
2020/12/28 07:21:59;;;;;;;;;;;6.40;82.50;;;;;;4956297;28;19951;-44
2020/12/28 07:24:25;;;;;;;;;;;6.40;82.40;;;;;;4919617;28;20500;-41
2020/12/28 07:26:54;;;;;;;;;;;6.40;82.40;;;;;;4948897;28;19926;-44
2020/12/28 07:29:20;;;;;;;;;;;6.40;82.40;;;;;;4942853;28;19956;-44
2020/12/28 07:31:46;;;;;;;;;;;6.40;82.40;;;;;;4949133;28;19929;-46
2020/12/28 07:34:14;;;;;;;;;;;6.40;82.40;;;;;;4951564;28;19925;-44
2020/12/28 07:36:42;;;;;;;;;;;6.40;82.50;;;;;;4945468;28;20386;-42
2020/12/28 07:39:11;;;;;;;;;;;6.40;82.50;;;;;;4923672;28;19937;-44
2020/12/28 07:41:38;;;;;;;;;;;6.40;82.50;;;;;;4948922;28;20020;-46
2020/12/28 07:44:06;;;;;;;;;;;6.40;82.20;;;;;;4945857;28;19933;-42
2020/12/28 07:46:49;;;;;;;;;;;6.40;82.00;;;;;;4932397;28;20358;-45
2020/12/28 07:49:20;;;;;;;;;;;6.40;82.00;;;;;;4951493;28;20382;-42
2020/12/28 07:51:53;;;;;;;;;;;6.40;82.00;;;;;;4950258;28;20418;-44
2020/12/28 07:54:25;;;;;;;;;;;6.50;82.00;;;;;;4950478;28;20024;-44
2020/12/28 07:56:58;;;;;;;;;;;6.50;81.80;;;;;;4946595;28;20601;-45
2020/12/28 07:59:43;;;;;;;;;;;6.50;81.60;;;;;;4950034;28;19941;-46
2020/12/28 08:02:23;;;;;;;;;;;6.50;81.50;;;;;;4941918;28;20065;-43
2020/12/28 08:04:49;;;;;;;;;;;6.50;81.40;;;;;;4950632;28;20271;-42
2020/12/28 08:07:20;;;;;;;;;;;6.50;81.30;;;;;;4946951;28;19930;-45
2020/12/28 08:09:55;;;;;;;;;;;6.50;81.40;;;;;;4948279;28;19933;-44
2020/12/28 08:12:22;;;;;;;;;;;6.50;81.40;;;;;;4943655;28;19933;-44
2020/12/28 08:14:51;;;;;;;;;;;6.50;81.40;;;;;;4940702;28;19941;-44
2020/12/28 08:17:17;;;;;;;;;;;6.60;81.40;;;;;;4945572;28;19925;-43
2020/12/28 08:19:44;;;;;;;;;;;6.60;81.40;;;;;;4931952;28;19926;-42
2020/12/28 08:22:17;;;;;;;;;;;6.60;81.50;;;;;;4946600;28;20027;-45
2020/12/28 08:25:02;;;;;;;;;;;6.60;81.60;;;;;;4945244;28;20432;-43
2020/12/28 08:27:29;;;;;;;;;;;6.60;81.60;;;;;;4931028;28;19937;-41
2020/12/28 08:29:56;;;;;;;;;;;6.60;81.50;;;;;;4946947;28;19925;-42
2020/12/28 08:32:30;;;;;;;;;;;6.60;81.40;;;;;;4947310;28;20547;-42
2020/12/28 08:34:58;;;;;;;;;;;6.60;81.10;;;;;;4945668;28;19941;-43
2020/12/28 08:37:30;;;;;;;;;;;6.60;80.90;;;;;;4943802;28;19925;-44
2020/12/28 08:39:56;;;;;;;;;;;6.70;80.90;;;;;;4943613;28;19929;-44
2020/12/28 08:42:27;;;;;;;;;;;6.70;80.90;;;;;;4949342;28;19940;-44
2020/12/28 08:44:53;;;;;;;;;;;6.70;80.90;;;;;;4951832;28;20247;-44
2020/12/28 08:47:22;;;;;;;;;;;6.70;80.90;;;;;;4932765;28;19929;-44
2020/12/28 08:49:49;;;;;;;;;;;6.80;81.00;;;;;;4946974;28;20466;-43
2020/12/28 08:52:16;;;;;;;;;;;6.80;80.30;;;;;;4942233;28;19941;-43
2020/12/28 08:54:50;;;;;;;;;;;6.80;79.70;;;;;;4945415;28;20337;-43
2020/12/28 08:57:22;;;;;;;;;;;6.80;79.50;;;;;;4949360;28;19972;-43
2020/12/28 08:59:49;;;;;;;;;;;6.90;79.50;;;;;;4923485;28;20013;-44
2020/12/28 09:02:17;;;;;;;;;;;6.90;79.60;;;;;;4933583;28;22202;-44
2020/12/28 09:04:44;;;;;;;;;;;6.90;79.70;;;;;;4944480;28;20055;-43
2020/12/28 09:07:10;;;;;;;;;;;6.90;79.70;;;;;;4953660;28;20112;-44
2020/12/28 09:09:38;;;;;;;;;;;6.90;79.70;;;;;;4947210;28;20034;-43
2020/12/28 09:12:05;;;;;;;;;;;6.90;79.80;;;;;;4948635;28;20404;-43
2020/12/28 09:14:31;;;;;;;;;;;7.00;79.80;;;;;;4942779;28;19934;-44
2020/12/28 09:17:14;;;;;;;;;;;7.00;79.80;;;;;;4947759;28;19930;-45
2020/12/28 09:19:40;;;;;;;;;;;7.00;79.80;;;;;;4947869;28;20640;-44
2020/12/28 09:22:06;;;;;;;;;;;7.00;79.90;;;;;;4951067;28;20017;-44
2020/12/28 09:24:32;;;;;;;;;;;7.00;79.80;;;;;;4938210;28;20056;-41
2020/12/28 09:26:59;;;;;;;;;;;7.10;79.70;;;;;;4933600;28;19937;-44
2020/12/28 09:29:26;;;;;;;;;;;7.10;79.60;;;;;;4948950;28;19926;-43
2020/12/28 09:31:53;;;;;;;;;;;7.10;79.60;;;;;;4950419;28;20673;-44
2020/12/28 09:34:19;;;;;;;;;;;7.10;79.60;;;;;;4951187;28;19992;-42
2020/12/28 09:36:45;;;;;;;;;;;7.10;79.80;;;;;;4948124;28;20020;-44
2020/12/28 09:39:16;;;;;;;;;;;7.10;80.10;;;;;;4944931;28;19925;-45
2020/12/28 09:41:42;;;;;;;;;;;7.10;80.40;;;;;;4924180;28;19934;-44
2020/12/28 09:44:08;;;;;;;;;;;7.20;80.60;;;;;;4945664;28;19940;-43
2020/12/28 09:46:35;;;;;;;;;;;7.20;80.60;;;;;;4950413;28;20026;-45
2020/12/28 09:49:02;;;;;;;;;;;7.20;80.60;;;;;;4925999;28;20381;-44
2020/12/28 09:51:28;;;;;;;;;;;7.30;80.70;;;;;;4948732;28;19930;-42
2020/12/28 09:53:54;;;;;;;;;;;7.30;80.70;;;;;;4947457;28;19948;-44
2020/12/28 09:56:26;;;;;;;;;;;7.30;80.80;;;;;;4950807;28;19933;-44
2020/12/28 09:58:55;;;;;;;;;;;7.40;80.70;;;;;;4953410;28;19933;-44
2020/12/28 10:01:21;;;;;;;;;;;7.40;80.70;;;;;;4951572;28;20301;-44
2020/12/28 10:03:49;;;;;;;;;;;7.40;80.70;;;;;;4953469;28;19933;-42
2020/12/28 10:06:32;;;;;;;;;;;7.40;80.70;;;;;;4941027;28;19929;-43
2020/12/28 10:08:58;;;;;;;;;;;7.40;80.90;;;;;;4950529;28;20142;-44
2020/12/28 10:11:25;;;;;;;;;;;7.40;81.00;;;;;;4950461;28;19938;-44
2020/12/28 10:13:53;;;;;;;;;;;7.40;81.10;;;;;;4951475;28;20392;-43
2020/12/28 10:16:20;;;;;;;;;;;7.30;81.20;;;;;;4951351;28;19929;-42
2020/12/28 10:18:46;;;;;;;;;;;7.30;81.50;;;;;;4948195;28;19934;-43
2020/12/28 10:21:12;;;;;;;;;;;7.30;81.80;;;;;;4946189;28;20420;-43
2020/12/28 10:23:39;;;;;;;;;;;7.30;81.70;;;;;;4946852;28;19925;-44
2020/12/28 10:26:06;;;;;;;;;;;7.30;82.10;;;;;;4956801;28;19926;-45
2020/12/28 10:28:35;;;;;;;;;;;7.30;82.10;;;;;;4944902;28;19942;-44
2020/12/28 10:31:01;;;;;;;;;;;7.40;82.00;;;;;;4946535;28;20381;-45
2020/12/28 10:33:28;;;;;;;;;;;7.40;82.00;;;;;;4946338;28;20030;-44
2020/12/28 10:35:54;;;;;;;;;;;7.40;81.60;;;;;;4949959;28;19929;-44
2020/12/28 10:38:20;;;;;;;;;;;7.40;81.40;;;;;;4946810;28;19941;-44
2020/12/28 10:40:47;;;;;;;;;;;7.50;81.30;;;;;;4948237;28;19925;-44
2020/12/28 10:43:14;;;;;;;;;;;7.50;81.30;;;;;;4929473;28;19926;-44
2020/12/28 10:45:40;;;;;;;;;;;7.50;81.30;;;;;;4955902;28;20023;-44
2020/12/28 10:48:06;;;;;;;;;;;7.60;81.00;;;;;;4955196;28;19937;-44
2020/12/28 10:50:32;;;;;;;;;;;7.60;80.90;;;;;;4952087;28;19933;-45
2020/12/28 10:52:59;;;;;;;;;;;7.60;81.00;;;;;;4951057;28;20390;-45
2020/12/28 10:55:25;;;;;;;;;;;7.60;81.10;;;;;;4945874;28;19929;-44
2020/12/28 10:57:53;;;;;;;;;;;7.60;81.20;;;;;;4949849;28;19936;-44
2020/12/28 11:00:19;;;;;;;;;;;7.60;81.10;;;;;;4948499;28;19933;-46
2020/12/28 11:02:46;;;;;;;;;;;7.60;81.00;;;;;;4951351;28;20366;-42
2020/12/28 11:05:14;;;;;;;;;;;7.60;81.20;;;;;;4927593;28;19925;-45
2020/12/28 11:07:41;;;;;;;;;;;7.60;81.30;;;;;;4946531;28;20035;-45
2020/12/28 11:10:11;;;;;;;;;;;7.70;81.40;;;;;;4952331;28;19937;-45
2020/12/28 11:12:37;;;;;;;;;;;7.70;81.60;;;;;;4949776;28;19968;-43
2020/12/28 11:15:05;;;;;;;;;;;7.70;81.60;;;;;;4947223;28;19952;-46
2020/12/28 11:17:31;;;;;;;;;;;7.80;81.80;;;;;;4958145;28;19936;-43
2020/12/28 11:19:57;;;;;;;;;;;7.80;81.70;;;;;;4945329;28;19926;-44
2020/12/28 11:22:26;;;;;;;;;;;7.80;81.80;;;;;;4947844;28;23555;-44
2020/12/28 11:24:53;;;;;;;;;;;7.80;81.90;;;;;;4945002;28;19929;-43
2020/12/28 11:27:20;;;;;;;;;;;7.80;82.00;;;;;;4952509;28;19929;-43
2020/12/28 11:29:46;;;;;;;;;;;7.80;82.10;;;;;;4954304;28;19968;-43
2020/12/28 11:32:16;;;;;;;;;;;7.80;82.00;;;;;;4945201;28;19929;-44
2020/12/28 11:34:43;;;;;;;;;;;7.80;82.00;;;;;;4947146;28;19933;-43
2020/12/28 11:37:11;;;;;;;;;;;7.80;82.00;;;;;;4944900;28;19926;-43
2020/12/28 11:39:38;;;;;;;;;;;7.80;82.00;;;;;;4919823;28;19999;-43
2020/12/28 11:42:07;;;;;;;;;;;7.80;82.00;;;;;;4929386;28;19925;-44
2020/12/28 11:44:34;;;;;;;;;;;7.80;82.10;;;;;;4945633;28;19982;-44
2020/12/28 11:47:00;;;;;;;;;;;7.80;82.10;;;;;;4949980;28;20063;-44
2020/12/28 11:49:26;;;;;;;;;;;7.70;82.10;;;;;;4946948;28;19936;-43
2020/12/28 11:51:57;;;;;;;;;;;7.80;82.10;;;;;;4952544;28;20423;-44
2020/12/28 11:54:23;;;;;;;;;;;7.80;82.10;;;;;;4933424;28;21077;-44
2020/12/28 11:56:50;;;;;;;;;;;7.70;82.30;;;;;;4938062;28;19925;-44
2020/12/28 11:59:17;;;;;;;;;;;7.70;82.40;;;;;;4946191;28;20373;-44
2020/12/28 12:01:47;;;;;;;;;;;7.80;82.40;;;;;;4946827;28;19937;-44
2020/12/28 12:04:14;;;;;;;;;;;7.70;82.40;;;;;;4937951;28;19932;-44
2020/12/28 12:06:40;;;;;;;;;;;7.80;82.40;;;;;;4946870;28;19933;-44
2020/12/28 12:09:14;;;;;;;;;;;7.80;82.50;;;;;;4940559;28;19933;-44
2020/12/28 12:11:42;;;;;;;;;;;7.70;82.40;;;;;;4945078;28;20297;-44
2020/12/28 12:14:09;;;;;;;;;;;7.80;82.60;;;;;;4939521;28;19933;-44
2020/12/28 12:16:53;;;;;;;;;;;7.80;82.60;;;;;;4947889;28;20305;-44
2020/12/28 12:19:19;;;;;;;;;;;7.80;82.60;;;;;;4941566;28;19941;-44
2020/12/28 12:21:45;;;;;;;;;;;7.80;82.60;;;;;;4928058;28;19936;-44
2020/12/28 12:24:12;;;;;;;;;;;7.80;82.60;;;;;;4948898;28;20098;-43
2020/12/28 12:26:38;;;;;;;;;;;7.80;82.60;;;;;;4929864;28;19931;-43
2020/12/28 12:29:04;;;;;;;;;;;7.80;82.60;;;;;;4948715;28;20356;-43
2020/12/28 12:31:30;;;;;;;;;;;7.80;82.60;;;;;;4946501;28;20419;-44
2020/12/28 12:33:57;;;;;;;;;;;7.80;82.50;;;;;;4943653;28;19956;-43
2020/12/28 12:36:23;;;;;;;;;;;7.80;82.50;;;;;;4948327;28;19929;-44
2020/12/28 12:38:50;;;;;;;;;;;7.80;82.60;;;;;;4947412;28;19925;-43
2020/12/28 12:41:19;;;;;;;;;;;7.80;82.50;;;;;;4948635;28;19968;-44
2020/12/28 12:43:46;;;;;;;;;;;7.70;82.50;;;;;;4950902;28;19925;-43
2020/12/28 12:46:17;;;;;;;;;;;7.80;82.60;;;;;;4948811;28;19933;-43
2020/12/28 12:48:43;;;;;;;;;;;7.80;82.70;;;;;;4944805;28;20026;-44
2020/12/28 12:51:10;;;;;;;;;;;7.70;82.60;;;;;;4945505;28;19929;-44
2020/12/28 12:53:37;;;;;;;;;;;7.70;82.70;;;;;;4943794;28;19929;-44
2020/12/28 12:56:04;;;;;;;;;;;7.70;82.70;;;;;;4930802;28;21434;-43
2020/12/28 12:58:30;;;;;;;;;;;7.70;82.90;;;;;;4945644;28;20120;-44
2020/12/28 13:00:57;;;;;;;;;;;7.70;82.90;;;;;;4948227;28;19926;-44
2020/12/28 13:03:23;;;;;;;;;;;7.70;83.00;;;;;;4944917;28;20297;-43
2020/12/28 13:05:49;;;;;;;;;;;7.70;83.00;;;;;;4946431;28;19929;-43
2020/12/28 13:08:16;;;;;;;;;;;7.70;83.10;;;;;;4946855;28;20405;-43
2020/12/28 13:10:42;;;;;;;;;;;7.70;83.10;;;;;;4949385;28;19926;-44
2020/12/28 13:13:11;;;;;;;;;;;7.70;83.20;;;;;;4943235;28;19960;-46
2020/12/28 13:15:37;;;;;;;;;;;7.70;83.30;;;;;;4911772;28;19956;-45
2020/12/28 13:18:04;;;;;;;;;;;7.70;83.30;;;;;;4949957;28;19937;-44
2020/12/28 13:20:31;;;;;;;;;;;7.70;83.40;;;;;;4942073;28;20413;-42
2020/12/28 13:22:57;;;;;;;;;;;7.70;83.50;;;;;;4946686;28;19940;-45
2020/12/28 13:25:24;;;;;;;;;;;7.60;83.50;;;;;;4946307;28;19944;-44
2020/12/28 13:27:52;;;;;;;;;;;7.50;83.10;;;;;;4948442;28;20394;-42
2020/12/28 13:30:18;;;;;;;;;;;7.50;83.20;;;;;;4949119;28;19933;-42
2020/12/28 13:32:46;;;;;;;;;;;7.40;82.90;;;;;;4950479;28;20262;-42
2020/12/28 13:35:12;;;;;;;;;;;7.40;83.20;;;;;;4946415;28;20047;-43
2020/12/28 13:37:39;;;;;;;;;;;7.30;83.20;;;;;;4931711;28;19933;-44
2020/12/28 13:40:05;;;;;;;;;;;7.30;83.30;;;;;;4949643;28;19926;-44
2020/12/28 13:42:31;;;;;;;;;;;7.30;83.40;;;;;;4925587;28;19967;-45
2020/12/28 13:44:57;;;;;;;;;;;7.20;83.70;;;;;;4926295;28;20393;-42
2020/12/28 13:47:30;;;;;;;;;;;7.20;83.90;;;;;;4945689;28;19929;-41
2020/12/28 13:49:58;;;;;;;;;;;7.20;83.90;;;;;;4917885;28;20381;-43
2020/12/28 13:52:26;;;;;;;;;;;7.10;84.00;;;;;;4941925;28;19932;-44
2020/12/28 13:54:52;;;;;;;;;;;7.10;83.90;;;;;;4947548;28;19940;-43
2020/12/28 13:57:18;;;;;;;;;;;7.10;84.00;;;;;;4943807;28;19996;-43
2020/12/28 13:59:49;;;;;;;;;;;7.10;84.20;;;;;;4945252;28;19926;-43
2020/12/28 14:02:16;;;;;;;;;;;7.10;84.20;;;;;;4940937;28;19952;-44
2020/12/28 14:04:42;;;;;;;;;;;7.10;84.20;;;;;;4934960;28;19933;-44
2020/12/28 14:07:11;;;;;;;;;;;7.10;84.20;;;;;;4950832;28;19926;-44
2020/12/28 14:09:37;;;;;;;;;;;7.10;84.20;;;;;;4929315;28;19957;-43
2020/12/28 14:12:03;;;;;;;;;;;7.10;84.20;;;;;;4943590;28;25340;-43
2020/12/28 14:14:30;;;;;;;;;;;7.10;84.10;;;;;;4941569;28;19937;-45
2020/12/28 14:16:57;;;;;;;;;;;7.10;84.00;;;;;;4928511;28;19925;-44
2020/12/28 14:19:24;;;;;;;;;;;7.10;84.10;;;;;;4947979;28;19926;-44
2020/12/28 14:21:50;;;;;;;;;;;7.10;84.20;;;;;;4947377;28;19945;-44
2020/12/28 14:24:16;;;;;;;;;;;7.00;84.40;;;;;;4915970;28;19937;-43
2020/12/28 14:26:42;;;;;;;;;;;7.00;84.50;;;;;;4946645;28;19930;-45
2020/12/28 14:29:09;;;;;;;;;;;7.00;84.20;;;;;;4948231;28;19935;-43
2020/12/28 14:31:36;;;;;;;;;;;7.00;84.30;;;;;;4941527;28;20854;-45
2020/12/28 14:34:04;;;;;;;;;;;7.00;84.20;;;;;;4943403;28;19929;-46